Latest Weather Observations for King Island Airport

IDT60801

Issued at 10:35 pm EST Thursday 17 April 2014 (issued every 30 minutes, with the page automatically refreshed every 10 minutes)

About weather observations | Map of weather stations | Latest weather observations for TAS | Other Formats
Station Details ID: 098017 Name: KING ISLAND AIRPORT Lat: -39.88 Lon: 143.88 Height: 37.0 m
Data from the previous 72 hours. | See also: Recent months at King Island Airport
Date/Time
EST
Temp
°C
App
Temp
°C
Dew
Point
Rel
Hum
%
Delta-T
°C
Wind Press
QNH
hPa
Press
MSL
hPa
Rain
since 9 am
mm
Dir
 
Spd
km/h
Gust
km/h
Spd
kts
Gust
kts
17/10:30pm 11.3 10.3 11.0 98 0.2 NE 7 9 4 5 1017.0 - 0.0
17/10:00pm 12.0 11.8 11.7 98 0.2 NNE 4 9 2 5 1017.3 - 0.0
17/09:48pm 12.1 11.5 11.6 97 0.3 NNE 6 7 3 4 1017.3 - 0.0
17/09:30pm 12.6 13.3 12.1 97 0.3 CALM 0 0 0 0 1017.2 - 0.0
17/09:00pm 12.9 12.3 12.3 96 0.3 NE 7 7 4 4 1017.4 1017.4 0.0
17/08:56pm 12.8 12.1 12.0 95 0.4 NE 7 7 4 4 1017.3 - 0.0
17/08:34pm 13.9 14.8 12.8 93 0.6 CALM 0 0 0 0 1017.4 - 0.0
17/08:30pm 13.8 14.3 12.7 93 0.6 N 2 6 1 3 1017.4 - 0.0
17/08:00pm 14.6 13.9 13.1 91 0.8 N 9 9 5 5 1017.5 - 0.0
17/07:30pm 15.1 13.7 13.5 90 0.9 NW 13 15 7 8 1017.7 - 0.0
17/07:24pm 15.4 14.1 13.8 90 0.9 NW 13 17 7 9 1017.6 - 0.0
17/07:03pm 15.5 14.3 13.9 90 0.9 NW 13 15 7 8 1017.8 - 0.0
17/07:00pm 15.5 14.3 13.9 90 0.9 NW 13 17 7 9 1017.8 - 0.0
17/06:53pm 15.6 14.3 13.8 89 1.0 NW 13 17 7 9 1017.6 - 0.0
17/06:30pm 16.6 15.2 14.4 87 1.3 NW 15 19 8 10 1017.7 - 0.0
17/06:23pm 16.6 14.7 14.2 86 1.4 NW 17 20 9 11 1017.8 - 0.0
17/06:00pm 16.8 15.8 13.5 81 1.9 NNW 11 15 6 8 1017.8 1017.8 0.0
17/05:30pm 16.7 14.7 12.7 77 2.2 NNW 15 19 8 10 1018.0 - 0.0
17/05:00pm 16.8 14.9 13.1 79 2.1 NW 15 19 8 10 1018.0 - 0.0
17/04:30pm 17.1 14.8 13.0 77 2.3 NW 17 20 9 11 1018.1 - 0.0
17/04:00pm 17.3 14.3 12.6 74 2.6 NNW 20 26 11 14 1018.3 - 0.0
17/03:30pm 17.8 14.6 11.8 68 3.3 NNW 20 28 11 15 1018.3 - 0.0
17/03:00pm 19.0 15.9 12.3 65 3.7 NNW 20 26 11 14 1018.4 1018.4 0.0
17/02:30pm 18.6 14.5 11.4 63 3.9 NW 24 32 13 17 1018.6 - 0.0
17/02:00pm 18.5 15.1 12.5 68 3.3 NNW 22 30 12 16 1018.6 - 0.0
17/01:30pm 18.3 15.3 12.1 67 3.4 NW 19 28 10 15 1018.7 - 0.0
17/01:00pm 18.2 15.6 13.1 72 2.9 NNW 19 26 10 14 1019.1 - 0.0
17/12:30pm 18.1 15.9 13.4 74 2.7 NNW 17 26 9 14 1019.5 - 0.0
17/12:00pm 18.6 16.6 12.6 68 3.3 NNW 15 22 8 12 1019.7 1019.7 0.0
17/11:30am 18.2 15.8 12.6 70 3.1 N 17 26 9 14 1019.9 - 0.0
17/11:00am 17.5 15.3 13.2 76 2.4 NNW 17 24 9 13 1020.1 - 0.0
17/10:30am 17.5 15.1 12.8 74 2.6 N 17 26 9 14 1020.2 - 0.0
17/10:00am 17.2 15.3 12.9 76 2.4 N 15 19 8 10 1020.3 - 0.0
17/09:30am 16.5 15.2 12.5 77 2.2 N 11 15 6 8 1020.2 - 0.0
17/09:00am 15.0 15.7 14.4 96 0.3 NE 4 7 2 4 1020.3 1020.3 0.0
17/08:30am 13.4 13.1 13.4 100 0.0 ESE 7 9 4 5 1020.1 - 0.0
17/08:00am 11.4 10.5 11.4 100 0.0 ESE 7 9 4 5 1019.9 - 0.0
17/07:55am 11.0 10.0 11.0 100 0.0 ESE 7 9 4 5 1019.9 - 0.0
17/07:30am 10.7 9.6 10.7 100 0.0 SE 7 9 4 5 1019.8 - 0.0
17/07:23am 10.5 9.0 10.5 100 0.0 ESE 9 9 5 5 1019.8 - 0.0
17/07:00am 10.2 8.6 10.2 100 0.0 ESE 9 9 5 5 1019.5 - 0.0
17/06:30am 9.7 8.3 9.7 100 0.0 ESE 7 7 4 4 1019.5 - 0.0
17/06:27am 10.2 9.0 10.2 100 0.0 ESE 7 9 4 5 1019.5 - 0.0
17/06:07am 10.3 8.7 10.3 100 0.0 SE 9 9 5 5 1019.4 - 0.0
17/06:00am 9.4 7.6 9.4 100 0.0 ESE 9 9 5 5 1019.3 1019.3 0.0
17/05:51am 8.9 7.3 8.8 99 0.0 ESE 7 9 4 5 1019.3 - 0.0
17/05:50am 9.2 7.7 9.1 99 0.0 ESE 7 9 4 5 1019.3 - 0.0
17/05:48am 10.2 9.0 10.2 100 0.0 ESE 7 9 4 5 1019.3 - 0.0
17/05:30am 11.0 9.6 11.0 100 0.0 ESE 9 9 5 5 1019.2 - 0.0
17/05:25am 10.9 9.5 10.9 100 0.0 ESE 9 9 5 5 1019.2 - 0.0
17/05:10am 11.0 9.9 10.8 99 0.1 ESE 7 9 4 5 1019.2 - 0.0
17/05:00am 11.3 10.6 11.3 100 0.0 ESE 6 7 3 4 1019.3 - 0.0
17/04:54am 11.2 10.4 11.2 100 0.0 ESE 6 7 3 4 1019.3 - 0.0
17/04:47am 10.6 9.4 10.4 99 0.1 ESE 7 9 4 5 1019.3 - 0.0
17/04:30am 9.6 8.1 9.3 98 0.1 ESE 7 9 4 5 1019.3 - 0.0
17/04:14am 10.5 9.3 10.2 98 0.2 ESE 7 9 4 5 1019.2 - 0.0
17/04:08am 9.6 8.3 9.1 97 0.2 ESE 6 7 3 4 1019.2 - 0.0
17/04:00am 11.8 11.9 11.5 98 0.2 ESE 2 7 1 4 1019.2 - 0.0
17/03:40am 12.1 11.5 11.8 98 0.2 ESE 6 7 3 4 1019.1 - 0.0
17/03:30am 12.1 11.3 11.8 98 0.2 ESE 7 7 4 4 1019.0 - 0.0
17/03:00am 11.4 11.8 11.2 99 0.1 CALM 0 9 0 5 1019.1 1019.1 0.0
17/02:30am 10.4 9.1 10.1 98 0.2 E 7 9 4 5 1019.2 - 0.0
17/02:00am 10.1 8.8 9.8 98 0.2 ESE 7 9 4 5 1019.3 - 0.0
17/01:36am 9.9 8.1 9.4 97 0.2 ESE 9 11 5 6 1019.4 - 0.0
17/01:30am 10.7 8.7 10.2 97 0.3 ESE 11 13 6 7 1019.4 - 0.0
17/01:16am 11.4 10.1 11.1 98 0.2 ESE 9 11 5 6 1019.5 - 0.0
17/01:00am 11.1 9.7 10.8 98 0.2 ESE 9 11 5 6 1019.4 - 0.0
17/12:30am 11.3 10.3 11.1 99 0.1 ESE 7 9 4 5 1019.3 - 0.0
17/12:02am 10.9 9.4 10.6 98 0.2 ESE 9 9 5 5 1019.3 - 0.0
17/12:00am 10.9 9.4 10.6 98 0.2 ESE 9 9 5 5 1019.3 1019.3 0.0
 
Date/Time
EST
Temp
°C
App
Temp
°C
Dew
Point
Rel
Hum
%
Delta-T
°C
Wind Press
QNH
hPa
Press
MSL
hPa
Rain
since 9 am
mm
Dir
 
Spd
km/h
Gust
km/h
Spd
kts
Gust
kts
16/11:45pm 10.8 9.2 10.3 97 0.3 ESE 9 11 5 6 1019.4 - 0.0
16/11:38pm 11.1 10.0 10.6 97 0.3 ESE 7 9 4 5 1019.5 - 0.0
16/11:30pm 11.2 9.7 10.7 97 0.3 ESE 9 9 5 5 1019.5 - 0.0
16/11:02pm 10.9 11.1 10.6 98 0.2 CALM 0 7 0 4 1019.7 - 0.0
16/11:00pm 10.9 11.1 10.6 98 0.2 CALM 0 0 0 0 1019.7 - 0.0
16/10:30pm 10.4 10.4 9.9 97 0.3 CALM 0 0 0 0 1019.8 - 0.0
16/10:00pm 11.0 10.0 10.4 96 0.3 E 6 7 3 4 1019.8 - 0.0
16/09:30pm 10.4 8.3 9.6 95 0.4 E 11 11 6 6 1019.6 - 0.0
16/09:00pm 11.3 10.2 10.5 95 0.4 E 7 9 4 5 1019.7 1019.7 0.0
16/08:30pm 11.2 8.9 10.3 94 0.5 ENE 13 13 7 7 1019.5 - 0.0
16/08:00pm 11.2 9.5 9.9 92 0.7 ENE 9 11 5 6 1019.3 - 0.0
16/07:30pm 11.6 10.0 10.2 91 0.7 ENE 9 11 5 6 1019.4 - 0.0
16/07:00pm 12.0 10.3 9.9 87 1.1 ENE 9 13 5 7 1019.4 - 0.0
16/06:30pm 13.5 12.6 11.2 86 1.2 ENE 7 11 4 6 1019.6 - 0.0
16/06:00pm 14.0 12.6 11.0 82 1.6 E 9 11 5 6 1019.3 1019.3 0.0
16/05:30pm 15.1 13.5 11.5 79 1.9 E 11 13 6 7 1019.3 - 0.0
16/05:00pm 15.9 14.3 11.5 75 2.4 ENE 11 15 6 8 1019.3 - 0.0
16/04:30pm 16.4 14.1 11.6 73 2.6 ENE 15 19 8 10 1019.4 - 0.0
16/04:00pm 16.8 14.0 11.5 71 2.9 NE 17 22 9 12 1019.3 - 0.0
16/03:30pm 17.5 14.5 11.8 69 3.1 NE 19 24 10 13 1019.3 - 0.0
16/03:00pm 17.6 14.4 11.4 67 3.4 NE 19 28 10 15 1019.4 1019.4 0.0
16/02:30pm 18.0 14.6 11.3 65 3.6 ENE 20 30 11 16 1019.3 - 0.0
16/02:00pm 18.6 14.9 11.4 63 3.9 ENE 22 32 12 17 1019.1 - 0.0
16/01:30pm 19.2 15.1 11.5 61 4.2 NE 24 30 13 16 1019.2 - 0.0
16/01:00pm 19.5 16.3 12.0 62 4.2 E 20 28 11 15 1019.5 - 0.0
16/12:30pm 19.5 16.3 11.8 61 4.3 ENE 20 26 11 14 1020.1 - 0.0
16/12:00pm 18.2 15.2 12.0 67 3.4 NE 19 26 10 14 1020.6 1020.6 0.0
16/11:30am 17.9 14.6 11.5 66 3.5 NE 20 32 11 17 1020.9 - 0.0
16/11:00am 18.4 15.3 12.2 67 3.4 NE 20 30 11 16 1020.8 - 0.0
16/10:30am 17.8 14.3 12.3 70 3.0 NE 22 30 12 16 1021.0 - 0.0
16/10:00am 17.6 14.7 12.9 74 2.6 NE 20 28 11 15 1021.1 - 0.0
16/09:30am 16.7 14.4 13.0 79 2.1 NNE 17 26 9 14 1021.4 - 0.0
16/09:00am 16.4 14.7 13.5 83 1.6 NE 15 17 8 9 1021.6 1021.6 0.6
16/08:30am 14.6 13.6 13.5 93 0.6 NE 11 13 6 7 1021.6 - 0.6
16/08:00am 13.4 12.3 13.2 99 0.1 NE 11 13 6 7 1021.5 - 0.6
16/07:30am 12.5 11.9 12.3 99 0.1 ENE 7 9 4 5 1021.4 - 0.6
16/07:00am 12.8 11.9 12.6 99 0.1 E 9 9 5 5 1021.3 - 0.6
16/06:30am 12.6 12.0 12.4 99 0.1 NE 7 9 4 5 1021.2 - 0.4
16/06:00am 12.4 11.8 12.2 99 0.1 ENE 7 9 4 5 1021.1 1021.1 0.2
16/05:30am 11.8 10.6 11.6 99 0.1 E 9 9 5 5 1021.2 - 0.0
16/05:00am 11.6 10.7 11.4 99 0.1 ESE 7 9 4 5 1021.3 - 0.0
16/04:30am 11.6 10.3 11.4 99 0.1 E 9 13 5 7 1021.5 - 0.0
16/04:00am 9.6 7.8 9.5 99 0.0 ESE 9 11 5 6 1021.5 - 0.0
16/03:37am 9.2 7.6 8.9 98 0.1 ESE 7 9 4 5 1021.5 - 0.0
16/03:30am 8.7 7.0 8.4 98 0.1 ESE 7 9 4 5 1021.5 - 0.0
16/03:00am 11.0 9.9 10.7 98 0.2 ESE 7 9 4 5 1021.7 1021.7 0.0
16/02:30am 10.7 9.2 10.4 98 0.2 ESE 9 9 5 5 1022.0 - 0.0
16/02:04am 10.8 9.7 10.5 98 0.2 ESE 7 9 4 5 1022.1 - 0.0
16/02:00am 10.9 9.8 10.7 99 0.1 ESE 7 9 4 5 1022.2 - 0.0
16/01:30am 10.2 8.5 9.9 98 0.2 E 9 9 5 5 1022.5 - 0.0
16/01:00am 10.3 8.6 10.0 98 0.2 E 9 11 5 6 1022.6 - 0.0
16/12:30am 10.5 9.3 10.2 98 0.2 E 7 9 4 5 1022.8 - 0.0
16/12:00am 10.2 8.5 9.9 98 0.2 E 9 11 5 6 1023.0 1023.0 0.0
 
Date/Time
EST
Temp
°C
App
Temp
°C
Dew
Point
Rel
Hum
%
Delta-T
°C
Wind Press
QNH
hPa
Press
MSL
hPa
Rain
since 9 am
mm
Dir
 
Spd
km/h
Gust
km/h
Spd
kts
Gust
kts
15/11:30pm 10.1 8.4 9.8 98 0.2 E 9 11 5 6 1023.3 - 0.0
15/11:00pm 9.9 8.1 9.4 97 0.2 E 9 11 5 6 1023.5 - 0.0
15/10:30pm 10.5 8.9 10.2 98 0.2 ESE 9 11 5 6 1023.6 - 0.0
15/10:00pm 10.5 8.5 10.2 98 0.2 ESE 11 11 6 6 1023.7 - 0.0
15/09:30pm 10.3 8.3 10.0 98 0.2 E 11 11 6 6 1023.7 - 0.0
15/09:00pm 10.2 8.1 9.6 96 0.3 ESE 11 11 6 6 1023.7 1023.7 0.0
15/08:30pm 11.4 9.6 10.8 96 0.3 ESE 11 11 6 6 1023.8 - 0.0
15/08:00pm 11.7 10.3 10.8 94 0.5 ESE 9 9 5 5 1023.8 - 0.0
15/07:30pm 12.2 10.9 11.1 93 0.6 ESE 9 11 5 6 1023.8 - 0.0
15/07:00pm 12.4 10.9 10.6 89 0.9 SE 9 11 5 6 1023.8 - 0.0
15/06:30pm 13.6 12.5 11.8 89 1.0 ESE 9 11 5 6 1023.4 - 0.0
15/06:00pm 14.3 13.5 11.8 85 1.3 ESE 7 9 4 5 1023.2 1023.2 0.0
15/05:30pm 15.4 14.2 11.6 78 2.1 ENE 9 11 5 6 1023.1 - 0.0
15/05:00pm 16.0 14.9 11.8 76 2.3 ENE 9 11 5 6 1022.9 - 0.0
15/04:30pm 16.4 14.9 11.8 74 2.5 SE 11 13 6 7 1022.8 - 0.0
15/04:00pm 16.8 15.3 11.9 73 2.7 SSE 11 15 6 8 1022.8 - 0.0
15/03:30pm 16.5 15.2 11.4 72 2.8 SSE 9 15 5 8 1022.9 - 0.0
15/03:00pm 16.9 14.6 11.8 72 2.8 S 15 19 8 10 1023.0 1023.0 0.0
15/02:30pm 17.9 16.0 11.9 68 3.3 SSW 13 19 7 10 1023.0 - 0.0
15/02:00pm 17.7 15.2 12.4 71 2.9 W 17 22 9 12 1023.2 - 0.0
15/01:30pm 17.8 14.8 12.0 69 3.2 W 19 28 10 15 1023.3 - 0.0
15/01:00pm 17.8 14.8 12.0 69 3.2 W 19 26 10 14 1023.6 - 0.0
15/12:30pm 17.7 16.4 12.4 71 2.9 S 11 15 6 8 1023.9 - 0.0
15/12:00pm 17.3 15.2 12.4 73 2.7 WSW 15 20 8 11 1024.4 1024.4 0.0
15/11:30am 16.6 14.4 12.2 75 2.4 S 15 20 8 11 1024.7 - 0.0
15/11:00am 16.1 13.3 12.7 80 1.9 SSW 19 26 10 14 1024.8 - 0.0
15/10:30am 15.1 12.4 13.0 87 1.2 SSW 19 28 10 15 1025.0 - 0.0
15/10:00am 16.0 13.2 12.6 80 1.9 SSW 19 26 10 14 1025.1 - 0.0
15/09:30am 15.8 12.8 12.4 80 1.9 SSW 20 30 11 16 1025.2 - 0.0
15/09:00am 15.6 13.7 13.1 85 1.4 S 15 19 8 10 1025.1 1025.1 0.2
15/08:30am 14.9 13.8 13.1 89 1.0 S 11 17 6 9 1025.1 - 0.2
15/08:00am 13.0 11.0 11.6 91 0.7 S 13 17 7 9 1025.0 - 0.2
15/07:30am 10.9 8.4 9.8 93 0.6 S 13 17 7 9 1024.7 - 0.2
15/07:00am 9.9 7.6 9.1 95 0.4 SSE 11 13 6 7 1024.4 - 0.2
15/06:45am 9.8 7.6 9.5 98 0.1 SSE 11 15 6 8 1024.5 - 0.2
15/06:30am 8.2 6.0 7.9 98 0.1 SSE 9 13 5 7 1024.6 - 0.2
15/06:27am 8.0 6.3 7.7 98 0.1 SSE 6 11 3 6 1024.6 - 0.2
15/06:00am 8.5 8.1 8.2 98 0.1 CALM 0 6 0 3 1024.6 1024.6 0.2
15/05:30am 8.5 6.8 8.2 98 0.1 SSE 7 11 4 6 1024.5 - 0.2
15/05:23am 9.5 8.1 9.4 99 0.0 SSE 7 11 4 6 1024.4 - 0.2
15/05:05am 8.5 6.8 8.4 99 0.0 SSE 7 11 4 6 1024.4 - 0.2
15/05:00am 8.2 6.0 7.9 98 0.1 SE 9 11 5 6 1024.3 - 0.2
15/04:30am 8.2 6.6 7.9 98 0.1 SE 6 7 3 4 1024.3 - 0.2
15/04:00am 8.2 6.6 7.9 98 0.1 E 6 7 3 4 1024.3 - 0.2
15/03:30am 9.3 9.1 9.0 98 0.1 CALM 0 0 0 0 1024.2 - 0.2
15/03:00am 8.4 7.9 8.0 97 0.2 CALM 0 0 0 0 1024.2 1024.2 0.2
15/02:30am 9.0 8.3 8.4 96 0.3 SSE 2 7 1 4 1024.2 - 0.0
15/02:27am 9.5 8.5 8.9 96 0.3 SSE 4 7 2 4 1024.2 - 0.0
15/02:09am 10.3 9.5 9.8 97 0.3 SE 4 9 2 5 1024.3 - 0.0
15/02:00am 10.3 9.9 9.8 97 0.3 ENE 2 6 1 3 1024.3 - 0.0
15/01:30am 9.3 7.6 8.5 95 0.4 ENE 7 9 4 5 1024.3 - 0.0
15/01:00am 10.0 9.5 9.5 97 0.2 ESE 2 9 1 5 1024.3 - 0.0
15/12:30am 9.6 8.6 8.8 95 0.4 ENE 4 7 2 4 1024.5 - 0.0
15/12:00am 10.9 10.2 10.0 94 0.5 SE 4 7 2 4 1024.5 1024.5 0.0
 
Date/Time
EST
Temp
°C
App
Temp
°C
Dew
Point
Rel
Hum
%
Delta-T
°C
Wind Press
QNH
hPa
Press
MSL
hPa
Rain
since 9 am
mm
Dir
 
Spd
km/h
Gust
km/h
Spd
kts
Gust
kts
14/11:30pm 10.9 10.9 9.8 93 0.6 CALM 0 4 0 2 1024.5 - 0.0
14/11:00pm 11.9 10.9 11.0 94 0.5 SE 7 9 4 5 1024.7 - 0.0

Other Formats:

Comma delimited format used in spreadsheet applications
http://www.bom.gov.au/fwo/IDT60801/IDT60801.94850.axf

JavaScript Object Notation format (JSON) in row-major order
http://www.bom.gov.au/fwo/IDT60801/IDT60801.94850.json